createdAt,value
2022-08-22T00:01:48.349Z,1321.60
2022-08-22T00:04:25.523Z,1010.93
2022-08-22T00:06:56.516Z,1367.93
2022-08-22T00:09:30.164Z,1017.87
2022-08-22T00:12:05.441Z,1440.83
2022-08-22T00:14:41.232Z,1601.33
2022-08-22T00:17:21.579Z,1128.27
2022-08-22T00:19:53.635Z,1588.67
2022-08-22T00:22:26.104Z,1143.73
2022-08-22T00:24:57.671Z,1508.07
2022-08-22T00:27:28.331Z,1643.50
2022-08-22T00:30:01.604Z,1431.50
2022-08-22T00:32:35.279Z,1495.97
2022-08-22T00:35:06.280Z,1471.47
2022-08-22T00:37:39.298Z,1543.13
2022-08-22T00:40:20.936Z,1632.57
2022-08-22T00:43:00.580Z,1216.53
2022-08-22T00:45:52.699Z,1219.40
2022-08-22T00:48:42.603Z,1311.70
2022-08-22T00:51:19.967Z,1246.13
2022-08-22T00:53:52.706Z,1153.13
2022-08-22T00:56:41.024Z,1269.33
2022-08-22T00:59:43.886Z,1367.63
2022-08-22T01:02:22.144Z,1613.90
2022-08-22T01:04:56.107Z,1244.60
2022-08-22T01:07:38.339Z,1283.23
2022-08-22T01:10:20.100Z,1404.37
2022-08-22T01:12:58.115Z,1752.43
2022-08-22T01:15:29.733Z,1582.73
2022-08-22T01:18:20.945Z,1608.23
2022-08-22T01:21:24.107Z,1039.17
2022-08-22T01:24:37.692Z,1454.37
2022-08-22T01:27:32.600Z,1215.47
2022-08-22T01:30:19.771Z,1261.20
2022-08-22T01:33:15.762Z,1479.93
2022-08-22T01:36:17.431Z,1195.33
2022-08-22T01:38:54.986Z,1591.77
2022-08-22T01:41:54.303Z,1602.77
2022-08-22T01:44:41.686Z,1502.67
2022-08-22T01:47:13.031Z,1131.80
2022-08-22T01:49:45.078Z,1489.30
2022-08-22T01:52:19.624Z,1681.07
2022-08-22T01:54:54.034Z,1456.17
2022-08-22T01:57:23.862Z,1111.23
2022-08-22T01:59:54.149Z,1264.73
2022-08-22T02:02:32.729Z,1476.30
2022-08-22T02:05:06.868Z,1661.33
2022-08-22T02:07:47.627Z,1192.73
2022-08-22T02:10:21.210Z,1517.73
2022-08-22T02:12:58.012Z,1463.43
2022-08-22T02:15:29.039Z,1660.97
2022-08-22T02:18:10.976Z,1613.30
2022-08-22T02:20:42.029Z,1154.30
2022-08-22T02:23:20.841Z,1364.53
2022-08-22T02:25:52.636Z,1641.33
2022-08-22T02:28:31.719Z,1658.30
2022-08-22T02:31:04.038Z,1729.77
2022-08-22T02:33:37.263Z,1339.27
2022-08-22T02:36:11.802Z,1264.57
2022-08-22T02:38:45.514Z,1248.53
2022-08-22T02:41:17.498Z,1486.53
2022-08-22T02:43:49.649Z,1718.27
2022-08-22T02:46:24.244Z,1763.23
2022-08-22T02:48:59.963Z,1225.27
2022-08-22T02:51:32.906Z,1675.73
2022-08-22T02:54:08.877Z,1736.10
2022-08-22T02:56:40.787Z,1457.40
2022-08-22T02:59:24.300Z,1387.03
2022-08-22T03:01:52.440Z,1638.53
2022-08-22T03:04:48.010Z,1234.90
2022-08-22T03:07:26.918Z,1172.00
2022-08-22T03:10:02.166Z,2077.13
2022-08-22T03:12:33.321Z,2249.37
2022-08-22T03:15:11.303Z,1704.50
2022-08-22T03:17:40.772Z,1328.93
2022-08-22T03:20:11.552Z,1298.87
2022-08-22T03:22:45.755Z,1523.50
2022-08-22T03:25:23.167Z,1308.63
2022-08-22T03:27:54.672Z,1195.90
2022-08-22T03:30:29.123Z,1920.37
2022-08-22T03:32:59.196Z,2097.83
2022-08-22T03:35:33.193Z,2266.67
2022-08-22T03:38:14.539Z,1266.00
2022-08-22T03:40:55.776Z,1953.70
2022-08-22T03:44:00.426Z,2266.67
2022-08-22T03:47:00.703Z,1724.73
2022-08-22T03:49:41.542Z,1700.37
2022-08-22T03:52:24.107Z,2266.67
2022-08-22T03:55:15.623Z,2062.10
2022-08-22T03:58:05.207Z,1770.97
2022-08-22T04:00:47.724Z,1706.40
2022-08-22T04:03:57.876Z,1785.60
2022-08-22T04:06:53.723Z,1772.00
2022-08-22T04:09:57.032Z,1135.77
2022-08-22T04:13:03.136Z,1320.83
2022-08-22T04:15:56.788Z,1829.13
2022-08-22T04:18:47.691Z,1782.27
2022-08-22T04:21:36.376Z,1239.07
2022-08-22T04:24:16.810Z,1906.00
2022-08-22T04:26:48.306Z,2191.20
2022-08-22T04:29:20.615Z,1945.30
2022-08-22T04:31:54.564Z,2266.67
2022-08-22T04:34:26.577Z,2039.13
2022-08-22T04:36:59.608Z,2108.47
2022-08-22T04:39:36.882Z,153.13
2022-08-22T04:42:31.775Z,78.30
2022-08-22T04:45:04.091Z,85.67
2022-08-22T04:47:36.682Z,85.30
2022-08-22T04:50:07.415Z,88.63
2022-08-22T04:52:47.437Z,1046.77
2022-08-22T04:55:22.871Z,1046.93
2022-08-22T04:57:55.664Z,1057.53
2022-08-22T05:00:24.483Z,1072.70
2022-08-22T05:02:58.151Z,1100.57
2022-08-22T05:05:28.266Z,1114.27
2022-08-22T05:07:58.464Z,1118.97
2022-08-22T05:10:28.412Z,1113.90
2022-08-22T05:12:59.027Z,1267.63
2022-08-22T05:15:31.319Z,1114.83
2022-08-22T05:18:08.575Z,1078.30
2022-08-22T05:20:39.494Z,1077.50
2022-08-22T05:23:17.368Z,1114.17
2022-08-22T05:25:47.101Z,1135.83
2022-08-22T05:28:23.242Z,1140.20
2022-08-22T05:30:51.446Z,1130.20
2022-08-22T05:33:24.761Z,1145.70
2022-08-22T05:35:58.271Z,1156.87
2022-08-22T05:38:29.589Z,1121.03
2022-08-22T05:41:01.587Z,1121.53
2022-08-22T05:43:29.555Z,1135.23
2022-08-22T05:45:58.832Z,1164.27
2022-08-22T05:48:34.714Z,1131.47
2022-08-22T05:51:14.195Z,1131.90
2022-08-22T05:53:44.423Z,1124.63
2022-08-22T05:56:15.012Z,1139.50
2022-08-22T05:58:49.472Z,1134.43
2022-08-22T06:01:23.217Z,1152.87
2022-08-22T06:04:00.094Z,1186.57
2022-08-22T06:06:29.688Z,1149.73
2022-08-22T06:08:59.628Z,1172.50
2022-08-22T06:11:34.021Z,1169.23
2022-08-22T06:14:13.045Z,1165.57
2022-08-22T06:16:48.597Z,1152.53
2022-08-22T06:19:19.099Z,1258.40
2022-08-22T06:21:49.935Z,1249.77
2022-08-22T06:24:21.875Z,1194.57
2022-08-22T06:26:51.710Z,1179.17
2022-08-22T06:29:34.076Z,1120.53
2022-08-22T06:32:04.699Z,1100.33
2022-08-22T06:34:36.072Z,1152.90
2022-08-22T06:37:05.726Z,1182.93
2022-08-22T06:39:35.435Z,1148.00
2022-08-22T06:42:10.343Z,1149.43
2022-08-22T06:44:45.242Z,1160.17
2022-08-22T06:47:16.418Z,1126.40
2022-08-22T06:49:46.222Z,1134.87
2022-08-22T06:52:17.929Z,1093.80
2022-08-22T06:54:47.915Z,1159.70
2022-08-22T06:57:27.447Z,1157.63
2022-08-22T06:59:55.540Z,1155.27
2022-08-22T07:02:27.926Z,1149.90
2022-08-22T07:04:57.543Z,1141.77
2022-08-22T07:07:26.628Z,1130.87
2022-08-22T07:09:57.499Z,1149.00
2022-08-22T07:12:30.591Z,1139.23
2022-08-22T07:15:11.324Z,1127.90
2022-08-22T07:17:49.495Z,1130.90
2022-08-22T07:20:24.716Z,1124.07
2022-08-22T07:22:54.928Z,1298.00
2022-08-22T07:25:24.356Z,1116.33
2022-08-22T07:28:16.439Z,1148.67
2022-08-22T07:30:53.746Z,1135.37
2022-08-22T07:33:33.336Z,1307.00
2022-08-22T07:36:14.232Z,1134.03
2022-08-22T07:38:44.984Z,1136.87
2022-08-22T07:41:16.037Z,1146.73
2022-08-22T07:43:46.524Z,1146.30
2022-08-22T07:46:24.775Z,1163.70
2022-08-22T07:49:08.578Z,1195.03
2022-08-22T07:51:43.444Z,1210.47
2022-08-22T07:54:12.851Z,1149.47
2022-08-22T07:56:46.257Z,1146.47
2022-08-22T07:59:16.965Z,1132.57
2022-08-22T08:01:46.244Z,1234.87
2022-08-22T08:04:17.671Z,1146.23
2022-08-22T08:06:48.268Z,1145.57
2022-08-22T08:09:16.743Z,1156.97
2022-08-22T08:11:44.858Z,1221.30
2022-08-22T08:14:14.712Z,1136.30
2022-08-22T08:16:44.228Z,1149.07
2022-08-22T08:19:13.190Z,1139.33
2022-08-22T08:21:43.271Z,1158.23
2022-08-22T08:24:18.035Z,1149.40
2022-08-22T08:27:03.686Z,1142.43
2022-08-22T08:29:32.016Z,1146.97
2022-08-22T08:32:00.427Z,1149.67
2022-08-22T08:34:29.672Z,1160.97
2022-08-22T08:37:00.548Z,1173.13
2022-08-22T08:39:35.380Z,1040.27
2022-08-22T08:42:16.678Z,1042.23
2022-08-22T08:45:07.575Z,1038.53
2022-08-22T08:47:57.299Z,1038.70
2022-08-22T08:50:37.115Z,1046.60
2022-08-22T08:53:24.210Z,1042.37
2022-08-22T08:55:57.427Z,1030.63
2022-08-22T08:58:34.727Z,1038.30
2022-08-22T09:01:14.011Z,1034.60
2022-08-22T09:04:02.283Z,1043.03
2022-08-22T09:06:43.172Z,1025.87
2022-08-22T09:09:31.779Z,1034.87
2022-08-22T09:12:24.559Z,1025.30
2022-08-22T09:15:02.354Z,907.60
2022-08-22T09:17:53.108Z,920.17
2022-08-22T09:20:30.843Z,616.67
2022-08-22T09:23:26.283Z,559.00
2022-08-22T09:25:56.898Z,1021.07
2022-08-22T09:28:31.235Z,1067.70
2022-08-22T09:31:16.975Z,1027.23
2022-08-22T09:34:05.141Z,1099.93
2022-08-22T09:36:37.838Z,1052.47
2022-08-22T09:39:11.359Z,958.03
2022-08-22T09:41:42.279Z,549.40
2022-08-22T09:44:18.982Z,650.73
2022-08-22T09:46:56.507Z,672.73
2022-08-22T09:49:29.435Z,1028.50
2022-08-22T09:52:15.213Z,560.63
2022-08-22T09:54:58.513Z,677.17
2022-08-22T09:57:35.537Z,575.43
2022-08-22T10:00:25.146Z,692.73
2022-08-22T10:03:02.063Z,1006.20
2022-08-22T10:05:40.437Z,741.77
2022-08-22T10:08:13.801Z,757.90
2022-08-22T10:10:54.720Z,725.23
2022-08-22T10:13:34.257Z,963.50
2022-08-22T10:16:22.356Z,695.10
2022-08-22T10:18:56.155Z,617.03
2022-08-22T10:21:35.987Z,609.67
2022-08-22T10:24:08.895Z,2266.67
2022-08-22T10:26:45.262Z,2266.67
2022-08-22T10:29:49.984Z,1274.00
2022-08-22T10:32:30.523Z,2266.67
2022-08-22T10:35:02.730Z,2266.67
2022-08-22T10:37:39.501Z,2266.67
2022-08-22T10:40:14.165Z,2266.67
2022-08-22T10:42:47.179Z,2266.67
2022-08-22T10:45:36.095Z,2266.67
2022-08-22T10:48:37.162Z,2266.67
2022-08-22T10:51:11.449Z,2266.67
2022-08-22T10:53:53.138Z,2266.67
2022-08-22T10:56:27.542Z,2266.67
2022-08-22T10:59:01.053Z,2266.67
2022-08-22T11:01:41.949Z,2266.67
2022-08-22T11:04:19.741Z,2266.67
2022-08-22T11:07:03.592Z,2266.67
2022-08-22T11:09:40.152Z,2266.67
2022-08-22T11:12:19.146Z,941.80
2022-08-22T11:15:03.005Z,1385.80
2022-08-22T11:18:16.582Z,1403.00
2022-08-22T11:20:56.090Z,1408.00
2022-08-22T11:23:30.202Z,2266.67
2022-08-22T11:26:06.846Z,1440.27
2022-08-22T11:28:54.591Z,2266.67
2022-08-22T11:31:27.502Z,2266.67
2022-08-22T11:34:05.018Z,1534.80
2022-08-22T11:36:40.375Z,2266.67
2022-08-22T11:39:18.854Z,2266.67
2022-08-22T11:41:53.660Z,2266.67
2022-08-22T11:44:27.468Z,1402.73
2022-08-22T11:46:57.216Z,2266.67
2022-08-22T11:49:45.957Z,2266.67
2022-08-22T11:52:31.078Z,2266.67
2022-08-22T11:55:21.543Z,2266.67
2022-08-22T11:57:51.376Z,2266.67
2022-08-22T12:00:26.566Z,2266.67
2022-08-22T12:03:27.205Z,2266.67
2022-08-22T12:06:01.052Z,2266.67
2022-08-22T12:09:02.415Z,1463.70
2022-08-22T12:11:38.186Z,2266.67
2022-08-22T12:14:08.104Z,2266.67
2022-08-22T12:16:41.913Z,2266.67
2022-08-22T12:19:19.396Z,1443.83
2022-08-22T12:22:22.928Z,2019.13
2022-08-22T12:25:06.706Z,2266.67
2022-08-22T12:27:55.418Z,2266.67
2022-08-22T12:30:30.896Z,2266.67
2022-08-22T12:33:28.156Z,2266.67
2022-08-22T12:36:09.482Z,2266.67
2022-08-22T12:38:53.813Z,1049.20
2022-08-22T12:41:40.020Z,1051.80
2022-08-22T12:44:27.308Z,1058.10
2022-08-22T12:47:07.599Z,1048.10
2022-08-22T12:49:52.365Z,1057.53
2022-08-22T12:52:29.588Z,1053.23
2022-08-22T12:55:18.364Z,1042.33
2022-08-22T12:57:54.214Z,1038.40
2022-08-22T13:00:31.964Z,1073.67
2022-08-22T13:03:03.244Z,1064.77
2022-08-22T13:05:40.423Z,1053.10
2022-08-22T13:08:10.424Z,1071.97
2022-08-22T13:10:43.287Z,1066.40
2022-08-22T13:13:15.592Z,1057.40
2022-08-22T13:15:56.059Z,1065.30
2022-08-22T13:18:31.137Z,1060.53
2022-08-22T13:21:02.619Z,1069.13
2022-08-22T13:23:39.508Z,1071.93
2022-08-22T13:26:12.264Z,1071.63
2022-08-22T13:29:15.475Z,1069.60
2022-08-22T13:31:52.911Z,1070.20
2022-08-22T13:34:38.460Z,1067.43
2022-08-22T13:37:10.097Z,1038.77
2022-08-22T13:39:39.751Z,1153.60
2022-08-22T13:42:14.535Z,1054.23
2022-08-22T13:44:56.779Z,1064.03
2022-08-22T13:47:26.971Z,1051.07
2022-08-22T13:50:07.571Z,1051.87
2022-08-22T13:52:39.044Z,1048.33
2022-08-22T13:55:12.452Z,1051.03
2022-08-22T13:57:43.624Z,1058.50
2022-08-22T14:00:33.611Z,1065.37
2022-08-22T14:03:08.206Z,1020.53
2022-08-22T14:05:39.539Z,1032.47
2022-08-22T14:08:14.350Z,1053.13
2022-08-22T14:10:47.044Z,1049.20
2022-08-22T14:13:39.124Z,1013.47
2022-08-22T14:16:10.650Z,1122.60
2022-08-22T14:18:45.494Z,1047.73
2022-08-22T14:21:33.468Z,1050.90
2022-08-22T14:24:17.190Z,1035.83
2022-08-22T14:26:57.850Z,1029.60
2022-08-22T14:29:27.316Z,1034.70
2022-08-22T14:32:02.486Z,619.83
2022-08-22T14:34:33.472Z,764.70
2022-08-22T14:37:04.295Z,635.27
2022-08-22T14:39:38.155Z,667.23
2022-08-22T14:42:15.534Z,657.83
2022-08-22T14:44:50.628Z,1134.57
2022-08-22T14:47:40.376Z,922.37
2022-08-22T14:50:42.222Z,659.87
2022-08-22T14:53:11.949Z,667.10
2022-08-22T14:55:40.658Z,677.33
2022-08-22T14:58:17.613Z,677.03
2022-08-22T15:00:55.034Z,651.57
2022-08-22T15:03:27.313Z,1080.20
2022-08-22T15:05:58.252Z,1075.67
2022-08-22T15:08:29.652Z,1073.07
2022-08-22T15:11:10.064Z,1072.57
2022-08-22T15:13:39.640Z,1069.10
2022-08-22T15:16:15.971Z,1080.80
2022-08-22T15:18:51.723Z,2266.67
2022-08-22T15:21:24.777Z,2266.67
2022-08-22T15:23:55.589Z,2266.67
2022-08-22T15:26:28.648Z,2266.67
2022-08-22T15:29:07.256Z,2266.67
2022-08-22T15:31:35.716Z,2266.67
2022-08-22T15:34:10.806Z,2266.67
2022-08-22T15:37:01.257Z,2266.67
2022-08-22T15:39:41.210Z,2266.67
2022-08-22T15:42:12.813Z,2266.67
2022-08-22T15:44:44.351Z,893.17
2022-08-22T15:47:27.772Z,788.57
2022-08-22T15:49:59.127Z,2266.67
2022-08-22T15:52:30.755Z,1206.43
2022-08-22T15:55:28.363Z,2266.67
2022-08-22T15:58:02.899Z,2266.67
2022-08-22T16:00:33.806Z,2266.67
2022-08-22T16:03:04.895Z,2266.67
2022-08-22T16:05:46.274Z,2266.67
2022-08-22T16:08:17.640Z,2266.67
2022-08-22T16:10:47.352Z,2266.67
2022-08-22T16:13:33.585Z,2266.67
2022-08-22T16:16:03.922Z,2266.67
2022-08-22T16:19:09.096Z,2266.67
2022-08-22T16:22:19.896Z,2266.67
2022-08-22T16:25:10.287Z,2266.67
2022-08-22T16:27:50.960Z,2200.00
2022-08-22T16:30:32.636Z,2266.67
2022-08-22T16:33:00.769Z,2266.67
2022-08-22T16:36:05.784Z,2266.67
2022-08-22T16:38:42.027Z,2266.67
2022-08-22T16:41:34.576Z,2266.67
2022-08-22T16:44:41.215Z,2266.67
2022-08-22T16:47:12.763Z,2266.67
2022-08-22T16:49:56.527Z,2266.67
2022-08-22T16:52:42.045Z,2266.67
2022-08-22T16:55:46.269Z,2266.67
2022-08-22T16:59:06.124Z,2266.67
2022-08-22T17:01:56.937Z,2266.67
2022-08-22T17:04:34.429Z,2266.67
2022-08-22T17:07:11.205Z,2266.67
2022-08-22T17:09:53.824Z,2266.67
2022-08-22T17:12:34.717Z,2266.67
2022-08-22T17:15:10.863Z,2266.67
2022-08-22T17:17:50.502Z,2266.67
2022-08-22T17:20:24.605Z,2266.67
2022-08-22T17:22:59.812Z,2266.67
2022-08-22T17:25:33.371Z,2266.67
2022-08-22T17:28:11.282Z,2266.67
2022-08-22T17:30:42.724Z,2266.67
2022-08-22T17:33:18.179Z,1176.10
2022-08-22T17:36:03.065Z,2266.67
2022-08-22T17:38:47.003Z,2266.67
2022-08-22T17:41:24.724Z,2266.67
2022-08-22T17:43:58.036Z,2266.67
2022-08-22T17:46:35.290Z,2266.67
2022-08-22T17:49:15.867Z,2266.67
2022-08-22T17:51:48.569Z,2266.67
2022-08-22T17:54:21.488Z,2266.67
2022-08-22T17:57:05.416Z,2266.67
2022-08-22T17:59:38.424Z,2266.67
2022-08-22T18:02:13.377Z,2266.67
2022-08-22T18:04:48.984Z,2266.67
2022-08-22T18:07:46.743Z,2266.67
2022-08-22T18:10:23.383Z,2266.67
2022-08-22T18:12:57.260Z,2266.67
2022-08-22T18:15:29.575Z,2266.67
2022-08-22T18:18:00.986Z,2266.67
2022-08-22T18:20:34.594Z,2266.67
2022-08-22T18:23:08.763Z,2266.67
2022-08-22T18:26:00.819Z,2266.67
2022-08-22T18:28:34.153Z,2266.67
2022-08-22T18:31:04.758Z,2266.67
2022-08-22T18:33:35.612Z,2266.67
2022-08-22T18:36:11.062Z,1009.93
2022-08-22T18:38:47.260Z,1095.40
2022-08-22T18:41:21.382Z,1621.37
2022-08-22T18:43:50.888Z,1548.80
2022-08-22T18:46:41.754Z,2074.13
2022-08-22T18:49:40.181Z,2266.67
2022-08-22T18:52:33.209Z,2266.67
2022-08-22T18:55:33.461Z,2098.40
2022-08-22T18:58:19.524Z,1555.47
2022-08-22T19:01:00.364Z,2020.60
2022-08-22T19:03:38.383Z,2266.67
2022-08-22T19:06:32.991Z,2266.67
2022-08-22T19:09:20.860Z,1659.33
2022-08-22T19:11:53.878Z,2266.67
2022-08-22T19:14:30.987Z,2228.43
2022-08-22T19:17:15.629Z,2266.67
2022-08-22T19:20:16.402Z,2122.43
2022-08-22T19:22:44.583Z,2165.13
2022-08-22T19:25:26.009Z,1496.90
2022-08-22T19:28:26.555Z,2266.67
2022-08-22T19:31:23.227Z,1565.77
2022-08-22T19:33:52.291Z,2266.67
2022-08-22T19:36:33.894Z,2266.67
2022-08-22T19:39:04.897Z,1650.00
2022-08-22T19:41:52.323Z,1703.23
2022-08-22T19:44:39.781Z,1344.47
2022-08-22T19:47:23.931Z,2266.67
2022-08-22T19:49:58.287Z,2266.67
2022-08-22T19:52:34.682Z,1920.00
2022-08-22T19:55:08.955Z,1612.20
2022-08-22T19:57:43.454Z,1441.23
2022-08-22T20:00:13.080Z,1520.67
2022-08-22T20:02:54.547Z,1957.07
2022-08-22T20:05:32.550Z,2245.80
2022-08-22T20:08:14.628Z,2259.03
2022-08-22T20:10:53.072Z,2255.53
2022-08-22T20:13:23.032Z,1080.67
2022-08-22T20:16:16.259Z,1198.57
2022-08-22T20:19:15.207Z,1209.70
2022-08-22T20:21:50.953Z,2266.67
2022-08-22T20:24:23.648Z,2266.67
2022-08-22T20:27:12.668Z,2266.67
2022-08-22T20:29:45.387Z,2266.67
2022-08-22T20:32:14.965Z,2266.67
2022-08-22T20:34:44.389Z,2266.67
2022-08-22T20:37:32.391Z,2266.67
2022-08-22T20:40:33.504Z,1069.13
2022-08-22T20:43:10.662Z,2266.67
2022-08-22T20:45:42.399Z,2266.67
2022-08-22T20:48:11.523Z,1373.30
2022-08-22T20:50:41.260Z,2266.67
2022-08-22T20:53:17.376Z,1049.33
2022-08-22T20:55:53.709Z,1647.97
2022-08-22T20:58:24.992Z,1291.47
2022-08-22T21:00:56.088Z,1265.30
2022-08-22T21:03:33.944Z,952.93
2022-08-22T21:06:13.153Z,1152.80
2022-08-22T21:08:41.816Z,1761.53
2022-08-22T21:11:28.253Z,1415.17
2022-08-22T21:13:56.425Z,1428.63
2022-08-22T21:16:31.659Z,1383.30
2022-08-22T21:19:01.524Z,1351.70
2022-08-22T21:21:32.114Z,1440.53
2022-08-22T21:24:04.154Z,1401.27
2022-08-22T21:26:35.168Z,1468.67
2022-08-22T21:29:05.304Z,1322.90
2022-08-22T21:31:35.735Z,1519.13
2022-08-22T21:34:05.655Z,1106.37
2022-08-22T21:36:38.748Z,1529.73
2022-08-22T21:39:12.850Z,1550.83
2022-08-22T21:41:42.279Z,1736.83
2022-08-22T21:44:25.954Z,1480.23
2022-08-22T21:46:53.626Z,1639.70
2022-08-22T21:49:22.971Z,1534.03
2022-08-22T21:51:52.530Z,1800.33
2022-08-22T21:54:35.599Z,1474.50
2022-08-22T21:57:18.420Z,1420.13
2022-08-22T21:59:51.868Z,1337.90
2022-08-22T22:02:35.302Z,1380.27
2022-08-22T22:05:08.427Z,1230.80
2022-08-22T22:07:38.518Z,1215.07
2022-08-22T22:10:08.366Z,1269.07
2022-08-22T22:12:36.183Z,1333.10
2022-08-22T22:15:04.222Z,1198.80
2022-08-22T22:17:31.838Z,1670.33
2022-08-22T22:19:59.476Z,1508.93
2022-08-22T22:22:27.191Z,1316.63
2022-08-22T22:24:56.213Z,1413.53
2022-08-22T22:27:23.927Z,1464.87
2022-08-22T22:29:51.533Z,1393.37
2022-08-22T22:32:19.136Z,1402.03
2022-08-22T22:34:46.764Z,1365.03
2022-08-22T22:37:14.704Z,1384.03
2022-08-22T22:39:42.899Z,1355.67
2022-08-22T22:42:11.977Z,1100.50
2022-08-22T22:44:39.684Z,1430.20
2022-08-22T22:47:11.548Z,1088.93
2022-08-22T22:49:39.208Z,1131.90
2022-08-22T22:52:07.052Z,1166.23
2022-08-22T22:54:39.281Z,1255.60
2022-08-22T22:57:12.774Z,1387.57
2022-08-22T22:59:42.431Z,1307.33
2022-08-22T23:02:12.222Z,1195.03
2022-08-22T23:04:41.442Z,1445.80
2022-08-22T23:07:10.184Z,1418.83
2022-08-22T23:09:45.173Z,1335.03
2022-08-22T23:12:13.206Z,1091.73
2022-08-22T23:14:42.276Z,1301.47
2022-08-22T23:17:10.184Z,1510.87
2022-08-22T23:19:38.800Z,1339.20
2022-08-22T23:22:07.591Z,1164.67
2022-08-22T23:24:36.132Z,1443.40
2022-08-22T23:27:04.599Z,1271.80
2022-08-22T23:29:32.244Z,1264.60
2022-08-22T23:32:03.474Z,1541.33
2022-08-22T23:34:33.939Z,1460.20
2022-08-22T23:37:05.766Z,1273.67
2022-08-22T23:39:35.575Z,1401.03
2022-08-22T23:42:03.547Z,1344.63
2022-08-22T23:44:34.092Z,1375.20
2022-08-22T23:47:03.539Z,1452.17
2022-08-22T23:49:31.515Z,1460.93
2022-08-22T23:51:59.511Z,1445.77
2022-08-22T23:54:27.408Z,1357.60
2022-08-22T23:56:56.902Z,1366.20
2022-08-22T23:59:30.710Z,1373.37
